createdAt,value
2017-11-17T00:00:08.175Z,9.77
2017-11-17T00:01:08.169Z,9.78
2017-11-17T00:02:08.162Z,9.71
2017-11-17T00:03:08.164Z,9.77
2017-11-17T00:04:08.156Z,9.73
2017-11-17T00:05:08.153Z,9.78
2017-11-17T00:06:08.143Z,9.75
2017-11-17T00:07:08.134Z,9.70
2017-11-17T00:08:08.128Z,9.74
2017-11-17T00:09:08.122Z,9.74
2017-11-17T00:10:08.116Z,9.67
2017-11-17T00:11:08.112Z,9.68
2017-11-17T00:12:08.105Z,9.73
2017-11-17T00:13:08.099Z,9.67
2017-11-17T00:14:08.093Z,9.70
2017-11-17T00:15:08.091Z,9.68
2017-11-17T00:16:08.087Z,9.70
2017-11-17T00:17:08.079Z,9.65
2017-11-17T00:18:08.073Z,9.65
2017-11-17T00:19:08.067Z,9.70
2017-11-17T00:20:08.063Z,9.63
2017-11-17T00:21:08.056Z,9.68
2017-11-17T00:22:08.049Z,9.65
2017-11-17T00:23:08.040Z,9.62
2017-11-17T00:24:08.033Z,9.59
2017-11-17T00:25:08.027Z,9.59
2017-11-17T00:26:08.026Z,9.60
2017-11-17T00:27:08.014Z,9.62
2017-11-17T00:28:08.014Z,9.59
2017-11-17T00:29:08.006Z,9.56
2017-11-17T00:30:08.004Z,9.58
2017-11-17T00:31:07.993Z,9.62
2017-11-17T00:32:07.989Z,9.65
2017-11-17T00:33:07.984Z,9.63
2017-11-17T00:34:07.977Z,9.65
2017-11-17T00:35:07.970Z,9.65
2017-11-17T00:36:07.965Z,9.71
2017-11-17T00:37:07.960Z,9.62
2017-11-17T00:38:07.954Z,9.71
2017-11-17T00:39:07.969Z,9.62
2017-11-17T00:40:07.937Z,9.68
2017-11-17T00:41:07.932Z,9.59
2017-11-17T00:42:07.924Z,9.63
2017-11-17T00:43:07.917Z,9.62
2017-11-17T00:44:07.914Z,9.65
2017-11-17T00:45:07.906Z,9.70
2017-11-17T00:46:07.899Z,9.62
2017-11-17T00:47:07.899Z,9.65
2017-11-17T00:48:07.893Z,9.59
2017-11-17T00:49:07.886Z,9.63
2017-11-17T00:50:07.881Z,9.62
2017-11-17T00:51:07.875Z,9.62
2017-11-17T00:52:07.869Z,9.49
2017-11-17T00:53:07.866Z,9.53
2017-11-17T00:54:07.856Z,9.60
2017-11-17T00:55:07.846Z,9.60
2017-11-17T00:56:07.841Z,9.58
2017-11-17T00:57:07.835Z,9.58
2017-11-17T00:58:07.829Z,9.62
2017-11-17T00:59:07.823Z,9.56
2017-11-17T01:00:07.816Z,9.59
2017-11-17T01:01:07.810Z,9.52
2017-11-17T01:02:07.843Z,9.65
2017-11-17T01:03:07.803Z,9.56
2017-11-17T01:04:07.798Z,9.62
2017-11-17T01:05:07.791Z,9.65
2017-11-17T01:06:07.784Z,9.62
2017-11-17T01:07:07.780Z,9.68
2017-11-17T01:08:07.774Z,9.62
2017-11-17T01:09:07.768Z,9.70
2017-11-17T01:10:07.764Z,9.63
2017-11-17T01:11:07.751Z,9.62
2017-11-17T01:12:07.749Z,9.71
2017-11-17T01:13:07.739Z,9.62
2017-11-17T01:14:07.734Z,9.65
2017-11-17T01:15:07.727Z,9.63
2017-11-17T01:16:07.723Z,9.70
2017-11-17T01:17:07.717Z,9.62
2017-11-17T01:18:07.710Z,9.80
2017-11-17T01:19:07.718Z,9.78
2017-11-17T01:20:07.704Z,9.73
2017-11-17T01:21:07.696Z,9.77
2017-11-17T01:22:07.691Z,9.80
2017-11-17T01:23:07.685Z,9.78
2017-11-17T01:24:07.680Z,9.78
2017-11-17T01:25:07.673Z,9.74
2017-11-17T01:26:07.668Z,9.78
2017-11-17T01:27:07.657Z,9.71
2017-11-17T01:28:07.652Z,9.78
2017-11-17T01:29:07.647Z,9.81
2017-11-17T01:30:07.640Z,9.83
2017-11-17T01:31:07.632Z,9.81
2017-11-17T01:32:07.628Z,9.80
2017-11-17T01:33:07.622Z,9.92
2017-11-17T01:34:07.616Z,9.89
2017-11-17T01:35:07.615Z,9.92
2017-11-17T01:36:07.610Z,9.89
2017-11-17T01:37:07.604Z,9.95
2017-11-17T01:38:07.598Z,9.93
2017-11-17T01:39:07.590Z,9.92
2017-11-17T01:40:07.585Z,9.89
2017-11-17T01:41:07.579Z,9.93
2017-11-17T01:42:07.575Z,9.98
2017-11-17T01:43:07.564Z,10.07
2017-11-17T01:44:07.559Z,9.92
2017-11-17T01:45:07.556Z,9.93
2017-11-17T01:46:07.545Z,9.96
2017-11-17T01:47:07.541Z,9.91
2017-11-17T01:48:07.538Z,9.99
2017-11-17T01:49:07.530Z,9.91
2017-11-17T01:50:07.523Z,9.96
2017-11-17T01:51:07.523Z,9.91
2017-11-17T01:52:07.516Z,9.91
2017-11-17T01:53:07.511Z,9.91
2017-11-17T01:54:07.503Z,9.96
2017-11-17T01:55:07.499Z,9.88
2017-11-17T01:56:07.493Z,10.09
2017-11-17T01:57:07.488Z,10.14
2017-11-17T01:58:07.481Z,10.20
2017-11-17T01:59:07.472Z,10.13
2017-11-17T02:00:07.467Z,10.16
2017-11-17T02:01:07.459Z,10.16
2017-11-17T02:02:07.454Z,10.24
2017-11-17T02:03:07.449Z,10.20
2017-11-17T02:04:07.441Z,10.14
2017-11-17T02:05:07.438Z,10.16
2017-11-17T02:06:07.429Z,10.20
2017-11-17T02:07:07.430Z,10.09
2017-11-17T02:08:07.423Z,10.13
2017-11-17T02:09:07.418Z,10.09
2017-11-17T02:10:07.410Z,10.13
2017-11-17T02:11:07.402Z,10.17
2017-11-17T02:12:07.396Z,10.13
2017-11-17T02:13:07.391Z,10.07
2017-11-17T02:14:07.385Z,10.11
2017-11-17T02:15:07.383Z,10.13
2017-11-17T02:16:07.377Z,10.07
2017-11-17T02:17:07.371Z,10.14
2017-11-17T02:18:07.366Z,10.11
2017-11-17T02:19:07.359Z,10.14
2017-11-17T02:20:07.354Z,10.17
2017-11-17T02:21:07.349Z,10.22
2017-11-17T02:22:07.341Z,10.18
2017-11-17T02:23:07.334Z,10.24
2017-11-17T02:24:07.327Z,10.18
2017-11-17T02:25:07.321Z,10.22
2017-11-17T02:26:07.341Z,10.26
2017-11-17T02:27:07.309Z,10.17
2017-11-17T02:28:07.305Z,10.16
2017-11-17T02:29:07.298Z,10.13
2017-11-17T02:30:07.292Z,10.16
2017-11-17T02:31:07.291Z,10.18
2017-11-17T02:32:07.291Z,10.18
2017-11-17T02:33:07.278Z,10.25
2017-11-17T02:34:07.272Z,10.17
2017-11-17T02:35:07.266Z,10.25
2017-11-17T02:36:07.259Z,10.26
2017-11-17T02:37:07.255Z,10.17
2017-11-17T02:38:07.262Z,10.13
2017-11-17T02:39:07.242Z,10.18
2017-11-17T02:40:07.238Z,10.18
2017-11-17T02:41:07.228Z,10.16
2017-11-17T02:42:07.223Z,10.18
2017-11-17T02:43:07.215Z,10.13
2017-11-17T02:44:07.211Z,10.18
2017-11-17T02:45:07.206Z,10.09
2017-11-17T02:46:07.197Z,10.10
2017-11-17T02:47:07.196Z,10.16
2017-11-17T02:48:07.192Z,10.10
2017-11-17T02:49:07.187Z,10.16
2017-11-17T02:50:07.180Z,10.16
2017-11-17T02:51:07.181Z,10.11
2017-11-17T02:52:07.171Z,10.16
2017-11-17T02:53:07.167Z,10.20
2017-11-17T02:54:07.157Z,10.20
2017-11-17T02:55:07.148Z,10.22
2017-11-17T02:56:07.141Z,10.13
2017-11-17T02:57:07.137Z,10.18
2017-11-17T02:58:07.130Z,10.22
2017-11-17T02:59:07.124Z,10.18
2017-11-17T03:00:07.119Z,10.24
2017-11-17T03:01:07.114Z,10.22
2017-11-17T03:02:07.106Z,10.22
2017-11-17T03:03:07.105Z,10.24
2017-11-17T03:04:07.102Z,10.24
2017-11-17T03:05:07.094Z,10.22
2017-11-17T03:06:07.088Z,10.18
2017-11-17T03:07:07.083Z,10.28
2017-11-17T03:08:07.076Z,10.36
2017-11-17T03:09:07.072Z,10.25
2017-11-17T03:10:07.066Z,10.20
2017-11-17T03:11:07.054Z,10.26
2017-11-17T03:12:07.051Z,10.29
2017-11-17T03:13:07.044Z,10.25
2017-11-17T03:14:07.038Z,10.29
2017-11-17T03:15:07.035Z,10.38
2017-11-17T03:16:07.031Z,10.29
2017-11-17T03:17:07.025Z,10.34
2017-11-17T03:18:07.017Z,10.26
2017-11-17T03:19:07.008Z,10.29
2017-11-17T03:20:07.005Z,10.22
2017-11-17T03:21:06.997Z,10.24
2017-11-17T03:22:06.990Z,10.22
2017-11-17T03:23:06.984Z,10.20
2017-11-17T03:24:06.980Z,10.26
2017-11-17T03:25:06.974Z,10.24
2017-11-17T03:26:06.968Z,10.31
2017-11-17T03:27:06.969Z,10.25
2017-11-17T03:28:06.959Z,10.20
2017-11-17T03:29:06.955Z,10.18
2017-11-17T03:30:06.951Z,10.18
2017-11-17T03:31:06.946Z,10.24
2017-11-17T03:32:06.936Z,10.20
2017-11-17T03:33:06.932Z,10.24
2017-11-17T03:34:06.925Z,10.22
2017-11-17T03:35:06.915Z,10.20
2017-11-17T03:36:06.909Z,10.32
2017-11-17T03:37:06.902Z,10.28
2017-11-17T03:38:06.897Z,10.26
2017-11-17T03:39:06.892Z,10.25
2017-11-17T03:40:06.885Z,10.32
2017-11-17T03:41:06.881Z,10.22
2017-11-17T03:42:06.874Z,10.26
2017-11-17T03:43:06.873Z,10.20
2017-11-17T03:44:06.883Z,10.17
2017-11-17T03:45:06.865Z,10.20
2017-11-17T03:46:06.855Z,10.24
2017-11-17T03:47:06.849Z,10.14
2017-11-17T03:48:06.842Z,10.10
2017-11-17T03:49:06.838Z,10.09
2017-11-17T03:50:06.830Z,10.10
2017-11-17T03:51:06.820Z,10.14
2017-11-17T03:52:06.814Z,10.13
2017-11-17T03:53:06.821Z,10.18
2017-11-17T03:54:06.803Z,10.13
2017-11-17T03:55:06.796Z,10.17
2017-11-17T03:56:06.791Z,10.14
2017-11-17T03:57:06.785Z,10.26
2017-11-17T03:58:06.779Z,10.16
2017-11-17T03:59:06.777Z,10.24
2017-11-17T04:00:06.772Z,10.24
2017-11-17T04:01:06.775Z,10.16
2017-11-17T04:02:06.760Z,10.26
2017-11-17T04:03:06.757Z,10.17
2017-11-17T04:04:06.750Z,10.20
2017-11-17T04:05:06.742Z,10.14
2017-11-17T04:06:06.737Z,10.18
2017-11-17T04:07:06.725Z,10.16
2017-11-17T04:08:06.720Z,10.20
2017-11-17T04:09:06.715Z,10.13
2017-11-17T04:10:06.708Z,10.13
2017-11-17T04:11:06.702Z,10.14
2017-11-17T04:12:06.700Z,10.11
2017-11-17T04:13:06.691Z,10.09
2017-11-17T04:14:06.685Z,10.14
2017-11-17T04:15:06.685Z,10.13
2017-11-17T04:16:06.683Z,10.10
2017-11-17T04:17:06.672Z,10.07
2017-11-17T04:18:06.664Z,10.07
2017-11-17T04:19:06.660Z,10.06
2017-11-17T04:20:06.650Z,9.96
2017-11-17T04:21:06.644Z,10.02
2017-11-17T04:22:06.637Z,10.07
2017-11-17T04:23:06.637Z,10.04
2017-11-17T04:24:06.630Z,10.02
2017-11-17T04:25:06.624Z,10.13
2017-11-17T04:26:06.619Z,9.98
2017-11-17T04:27:06.612Z,9.98
2017-11-17T04:28:06.609Z,9.98
2017-11-17T04:29:06.601Z,9.99
2017-11-17T04:30:06.595Z,10.07
2017-11-17T04:31:06.585Z,9.98
2017-11-17T04:32:06.579Z,10.01
2017-11-17T04:33:06.574Z,10.02
2017-11-17T04:34:06.569Z,9.95
2017-11-17T04:35:06.562Z,9.98
2017-11-17T04:36:06.556Z,9.95
2017-11-17T04:37:06.551Z,10.06
2017-11-17T04:38:06.544Z,9.93
2017-11-17T04:39:06.542Z,9.95
2017-11-17T04:40:06.536Z,9.95
2017-11-17T04:41:06.531Z,10.02
2017-11-17T04:42:06.525Z,9.96
2017-11-17T04:43:06.520Z,9.91
2017-11-17T04:44:06.514Z,9.92
2017-11-17T04:45:06.509Z,9.93
2017-11-17T04:46:06.501Z,9.88
2017-11-17T04:47:06.490Z,9.74
2017-11-17T04:48:06.485Z,9.78
2017-11-17T04:49:06.480Z,9.78
2017-11-17T04:50:06.476Z,9.71
2017-11-17T04:51:06.469Z,9.73
2017-11-17T04:52:06.463Z,9.67
2017-11-17T04:53:06.456Z,9.67
2017-11-17T04:54:06.450Z,9.65
2017-11-17T04:55:06.449Z,9.59
2017-11-17T04:56:06.443Z,9.62
2017-11-17T04:57:06.435Z,9.50
2017-11-17T04:58:06.429Z,9.50
2017-11-17T04:59:06.430Z,9.48
2017-11-17T05:00:06.421Z,9.50
2017-11-17T05:01:06.414Z,9.41
2017-11-17T05:02:06.409Z,9.37
2017-11-17T05:03:06.394Z,9.26
2017-11-17T05:04:06.389Z,9.26
2017-11-17T05:05:06.383Z,9.22
2017-11-17T05:06:06.376Z,9.15
2017-11-17T05:07:06.372Z,9.19
2017-11-17T05:08:06.364Z,9.08
2017-11-17T05:09:06.359Z,9.12
2017-11-17T05:10:06.352Z,9.19
2017-11-17T05:11:06.350Z,9.13
2017-11-17T05:12:06.345Z,8.98
2017-11-17T05:13:06.337Z,9.00
2017-11-17T05:14:06.342Z,8.88
2017-11-17T05:15:06.325Z,8.85
2017-11-17T05:16:06.319Z,8.93
2017-11-17T05:17:06.311Z,8.93
2017-11-17T05:18:06.307Z,8.83
2017-11-17T05:19:06.295Z,8.79
2017-11-17T05:20:06.289Z,8.76
2017-11-17T05:21:06.282Z,8.71
2017-11-17T05:22:06.278Z,8.65
2017-11-17T05:23:06.273Z,8.60
2017-11-17T05:24:06.267Z,8.58
2017-11-17T05:25:06.269Z,8.61
2017-11-17T05:26:06.254Z,8.58
2017-11-17T05:27:06.243Z,8.61
2017-11-17T05:28:06.239Z,8.55
2017-11-17T05:29:06.229Z,8.54
2017-11-17T05:30:06.222Z,8.57
2017-11-17T05:31:06.217Z,8.50
2017-11-17T05:32:06.209Z,8.42
2017-11-17T05:33:06.201Z,8.50
2017-11-17T05:34:06.195Z,8.49
2017-11-17T05:35:06.192Z,8.42
2017-11-17T05:36:06.186Z,8.43
2017-11-17T05:37:06.180Z,8.50
2017-11-17T05:38:06.172Z,8.40
2017-11-17T05:39:06.166Z,8.42
2017-11-17T05:40:06.159Z,8.37
2017-11-17T05:41:06.152Z,8.42
2017-11-17T05:42:06.145Z,8.45
2017-11-17T05:43:06.135Z,8.45
2017-11-17T05:44:06.140Z,8.37
2017-11-17T05:45:06.123Z,8.46
2017-11-17T05:46:06.114Z,8.39
2017-11-17T05:47:06.116Z,8.39
2017-11-17T05:48:06.108Z,8.40
2017-11-17T05:49:06.096Z,8.50
2017-11-17T05:50:06.087Z,8.49
2017-11-17T05:51:06.123Z,8.52
2017-11-17T05:52:06.079Z,8.43
2017-11-17T05:53:06.072Z,8.50
2017-11-17T05:54:06.067Z,8.43
2017-11-17T05:55:06.058Z,8.37
2017-11-17T05:56:06.052Z,8.40
2017-11-17T05:57:06.046Z,8.37
2017-11-17T05:58:06.037Z,8.40
2017-11-17T05:59:06.027Z,8.42
2017-11-17T06:00:06.022Z,8.40
2017-11-17T06:01:06.014Z,8.42
2017-11-17T06:02:06.007Z,8.34
2017-11-17T06:03:06.004Z,8.36
2017-11-17T06:04:06.002Z,8.39
2017-11-17T06:05:05.988Z,8.36
2017-11-17T06:06:05.981Z,8.32
2017-11-17T06:07:05.978Z,8.34
2017-11-17T06:08:05.974Z,8.34
2017-11-17T06:09:05.968Z,8.31
2017-11-17T06:10:05.958Z,8.28
2017-11-17T06:11:05.952Z,8.24
2017-11-17T06:12:05.947Z,8.21
2017-11-17T06:13:05.941Z,8.24
2017-11-17T06:14:05.931Z,8.25
2017-11-17T06:15:05.921Z,8.20
2017-11-17T06:16:05.914Z,8.17
2017-11-17T06:17:05.909Z,8.14
2017-11-17T06:18:05.909Z,8.10
2017-11-17T06:19:05.895Z,8.12
2017-11-17T06:20:05.889Z,8.06
2017-11-17T06:21:05.881Z,8.10
2017-11-17T06:22:05.875Z,8.14
2017-11-17T06:23:05.872Z,8.20
2017-11-17T06:24:05.866Z,8.02
2017-11-17T06:25:05.871Z,8.04
2017-11-17T06:26:05.853Z,8.02
2017-11-17T06:27:05.840Z,8.00
2017-11-17T06:28:05.839Z,7.88
2017-11-17T06:29:05.828Z,7.92
2017-11-17T06:30:05.819Z,7.89
2017-11-17T06:31:05.829Z,7.86
2017-11-17T06:32:05.815Z,7.85
2017-11-17T06:33:05.808Z,7.85
2017-11-17T06:34:05.804Z,7.74
2017-11-17T06:35:05.790Z,7.77
2017-11-17T06:36:05.785Z,7.71
2017-11-17T06:37:05.777Z,7.63
2017-11-17T06:38:05.771Z,7.67
2017-11-17T06:39:05.766Z,7.66
2017-11-17T06:40:05.756Z,7.62
2017-11-17T06:41:05.744Z,7.60
2017-11-17T06:42:05.743Z,7.55
2017-11-17T06:43:05.745Z,7.50
2017-11-17T06:44:05.727Z,7.42
2017-11-17T06:45:05.724Z,7.47
2017-11-17T06:46:05.707Z,7.45
2017-11-17T06:47:05.705Z,7.47
2017-11-17T06:48:05.697Z,7.39
2017-11-17T06:49:05.696Z,7.44
2017-11-17T06:50:05.683Z,7.41
2017-11-17T06:51:05.680Z,7.41
2017-11-17T06:52:05.672Z,7.41
2017-11-17T06:53:05.661Z,7.39
2017-11-17T06:54:05.662Z,7.44
2017-11-17T06:55:05.646Z,7.45
2017-11-17T06:56:05.636Z,7.44
2017-11-17T06:57:05.634Z,7.42
2017-11-17T06:58:05.625Z,7.41
2017-11-17T06:59:05.613Z,7.36
2017-11-17T07:00:05.612Z,7.41
2017-11-17T07:01:05.615Z,7.29
2017-11-17T07:02:05.593Z,7.30
2017-11-17T07:03:05.591Z,7.26
2017-11-17T07:04:05.580Z,7.26
2017-11-17T07:05:05.573Z,7.32
2017-11-17T07:06:05.584Z,7.18
2017-11-17T07:07:05.568Z,7.24
2017-11-17T07:08:05.575Z,7.23
2017-11-17T07:09:05.567Z,7.29
2017-11-17T07:10:05.540Z,7.29
2017-11-17T07:11:05.529Z,7.29
2017-11-17T07:12:05.523Z,7.44
2017-11-17T07:13:05.512Z,7.45
2017-11-17T07:14:05.510Z,7.47
2017-11-17T07:15:05.499Z,7.51
2017-11-17T07:16:05.488Z,7.62
2017-11-17T07:17:05.500Z,7.63
2017-11-17T07:18:05.474Z,7.60
2017-11-17T07:19:05.476Z,7.70
2017-11-17T07:20:05.468Z,7.82
2017-11-17T07:21:05.461Z,7.81
2017-11-17T07:22:05.456Z,7.73
2017-11-17T07:23:05.441Z,7.74
2017-11-17T07:24:05.441Z,7.91
2017-11-17T07:25:05.432Z,7.89
2017-11-17T07:26:05.427Z,7.85
2017-11-17T07:27:05.410Z,7.92
2017-11-17T07:28:05.411Z,7.94
2017-11-17T07:29:05.397Z,7.89
2017-11-17T07:30:05.389Z,8.02
2017-11-17T07:31:05.393Z,7.99
2017-11-17T07:32:05.386Z,8.03
2017-11-17T07:33:05.375Z,8.18
2017-11-17T07:34:05.373Z,8.12
2017-11-17T07:35:05.353Z,8.28
2017-11-17T07:36:05.357Z,8.29
2017-11-17T07:37:05.348Z,8.39
2017-11-17T07:38:05.338Z,8.52
2017-11-17T07:39:05.332Z,8.55
2017-11-17T07:40:05.322Z,8.49
2017-11-17T07:41:05.315Z,8.63
2017-11-17T07:42:05.313Z,8.83
2017-11-17T07:43:05.305Z,9.06
2017-11-17T07:44:05.303Z,9.30
2017-11-17T07:45:05.296Z,9.40
2017-11-17T07:46:05.290Z,9.67
2017-11-17T07:47:05.279Z,9.93
2017-11-17T07:48:05.273Z,10.26
2017-11-17T07:49:05.266Z,9.91
2017-11-17T07:50:05.259Z,9.75
2017-11-17T07:51:05.250Z,9.73
2017-11-17T07:52:05.261Z,9.93
2017-11-17T07:53:05.238Z,10.24
2017-11-17T07:54:05.233Z,10.63
2017-11-17T07:55:05.226Z,11.05
2017-11-17T07:56:05.221Z,11.44
2017-11-17T07:57:05.218Z,11.74
2017-11-17T07:58:05.213Z,12.07
2017-11-17T07:59:05.215Z,12.41
2017-11-17T08:00:05.215Z,12.66
2017-11-17T08:01:05.202Z,13.10
2017-11-17T08:02:05.193Z,13.36
2017-11-17T08:03:05.189Z,13.10
2017-11-17T08:04:05.186Z,12.58
2017-11-17T08:05:05.181Z,12.25
2017-11-17T08:06:05.179Z,12.11
2017-11-17T08:07:05.169Z,11.79
2017-11-17T08:08:05.165Z,11.54
2017-11-17T08:09:05.162Z,11.44
2017-11-17T08:10:05.160Z,11.16
2017-11-17T08:11:05.154Z,11.72
2017-11-17T08:12:05.149Z,12.41
2017-11-17T08:13:05.145Z,13.03
2017-11-17T08:14:05.140Z,13.57
2017-11-17T08:15:05.142Z,14.13
2017-11-17T08:16:05.139Z,14.60
2017-11-17T08:17:05.135Z,14.86
2017-11-17T08:18:05.130Z,15.51
2017-11-17T08:19:05.127Z,15.80
2017-11-17T08:20:05.127Z,16.32
2017-11-17T08:21:05.124Z,16.77
2017-11-17T08:22:05.119Z,16.96
2017-11-17T08:23:05.113Z,17.12
2017-11-17T08:24:05.121Z,17.24
2017-11-17T08:25:05.111Z,17.27
2017-11-17T08:26:05.109Z,16.82
2017-11-17T08:27:05.108Z,15.71
2017-11-17T08:28:05.106Z,15.07
2017-11-17T08:29:05.106Z,14.57
2017-11-17T08:30:05.104Z,14.19
2017-11-17T08:31:05.111Z,14.09
2017-11-17T08:32:05.108Z,13.81
2017-11-17T08:33:05.106Z,13.53
2017-11-17T08:34:05.108Z,13.43
2017-11-17T08:35:05.105Z,13.22
2017-11-17T08:36:05.097Z,13.06
2017-11-17T08:37:05.096Z,12.99
2017-11-17T08:38:05.094Z,12.73
2017-11-17T08:39:05.108Z,12.74
2017-11-17T08:40:05.096Z,12.44
2017-11-17T08:41:05.094Z,12.49
2017-11-17T08:42:05.091Z,12.51
2017-11-17T08:43:05.090Z,12.44
2017-11-17T08:44:05.089Z,12.48
2017-11-17T08:45:05.086Z,12.51
2017-11-17T08:46:05.082Z,12.59
2017-11-17T08:47:05.076Z,12.71
2017-11-17T08:48:05.080Z,12.85
2017-11-17T08:49:05.076Z,13.14
2017-11-17T08:50:05.068Z,13.79
2017-11-17T08:51:05.065Z,14.38
2017-11-17T08:52:05.063Z,15.20
2017-11-17T08:53:05.060Z,15.74
2017-11-17T08:54:05.060Z,16.34
2017-11-17T08:55:05.060Z,16.66
2017-11-17T08:56:05.057Z,17.22
2017-11-17T08:57:05.058Z,17.81
2017-11-17T08:58:05.057Z,18.46
2017-11-17T08:59:05.054Z,18.87
2017-11-17T09:00:05.055Z,19.47
2017-11-17T09:01:05.054Z,19.92
2017-11-17T09:02:05.054Z,20.30
2017-11-17T09:03:05.048Z,20.68
2017-11-17T09:04:05.048Z,20.93
2017-11-17T09:05:05.050Z,21.27
2017-11-17T09:06:05.048Z,21.40
2017-11-17T09:07:05.054Z,21.42
2017-11-17T09:08:05.051Z,21.68
2017-11-17T09:09:05.053Z,21.93
2017-11-17T09:10:05.054Z,21.73
2017-11-17T09:11:05.062Z,22.21
2017-11-17T09:12:05.062Z,22.20
2017-11-17T09:13:05.067Z,22.14
2017-11-17T09:14:05.068Z,22.61
2017-11-17T09:15:05.071Z,22.38
2017-11-17T09:16:05.074Z,22.60
2017-11-17T09:17:05.077Z,22.60
2017-11-17T09:18:05.091Z,22.30
2017-11-17T09:19:05.079Z,22.67
2017-11-17T09:20:05.084Z,23.00
2017-11-17T09:21:05.086Z,23.19
2017-11-17T09:22:05.091Z,23.44
2017-11-17T09:23:05.097Z,23.09
2017-11-17T09:24:05.130Z,22.86
2017-11-17T09:25:05.109Z,21.85
2017-11-17T09:26:05.110Z,20.69
2017-11-17T09:27:05.119Z,19.79
2017-11-17T09:28:05.123Z,19.31
2017-11-17T09:29:05.126Z,19.89
2017-11-17T09:30:05.132Z,20.78
2017-11-17T09:31:05.135Z,21.67
2017-11-17T09:32:05.141Z,21.86
2017-11-17T09:33:05.144Z,22.17
2017-11-17T09:34:05.148Z,21.42
2017-11-17T09:35:05.149Z,21.45
2017-11-17T09:36:05.154Z,21.77
2017-11-17T09:37:05.156Z,22.39
2017-11-17T09:38:05.160Z,22.79
2017-11-17T09:39:05.166Z,23.29
2017-11-17T09:40:05.169Z,23.44
2017-11-17T09:41:05.180Z,23.79
2017-11-17T09:42:05.178Z,24.14
2017-11-17T09:43:05.190Z,24.36
2017-11-17T09:44:05.196Z,24.61
2017-11-17T09:45:05.208Z,24.44
2017-11-17T09:46:05.203Z,24.45
2017-11-17T09:47:05.209Z,24.31
2017-11-17T09:48:05.215Z,24.53
2017-11-17T09:49:05.222Z,24.82
2017-11-17T09:50:05.228Z,24.94
2017-11-17T09:51:05.228Z,24.37
2017-11-17T09:52:05.233Z,24.60
2017-11-17T09:53:05.239Z,25.01
2017-11-17T09:54:05.245Z,25.17
2017-11-17T09:55:05.252Z,25.49
2017-11-17T09:56:05.258Z,24.77
2017-11-17T09:57:05.265Z,23.77
2017-11-17T09:58:05.271Z,24.00
2017-11-17T09:59:05.281Z,24.04
2017-11-17T10:00:05.288Z,24.37
2017-11-17T10:01:05.296Z,24.37
2017-11-17T10:02:05.299Z,24.74
2017-11-17T10:03:05.306Z,24.71
2017-11-17T10:04:05.313Z,25.02
2017-11-17T10:05:05.321Z,25.29
2017-11-17T10:06:05.325Z,25.61
2017-11-17T10:07:05.329Z,25.97
2017-11-17T10:08:05.335Z,25.72
2017-11-17T10:09:05.343Z,25.85
2017-11-17T10:10:05.350Z,25.72
2017-11-17T10:11:05.356Z,25.75
2017-11-17T10:12:05.365Z,25.72
2017-11-17T10:13:05.372Z,24.79
2017-11-17T10:14:05.378Z,24.87
2017-11-17T10:15:05.394Z,25.24
2017-11-17T10:16:05.397Z,25.38
2017-11-17T10:17:05.404Z,25.72
2017-11-17T10:18:05.409Z,25.48
2017-11-17T10:19:05.421Z,24.44
2017-11-17T10:20:05.430Z,24.93
2017-11-17T10:21:05.433Z,25.29
2017-11-17T10:22:05.438Z,25.59
2017-11-17T10:23:05.442Z,25.72
2017-11-17T10:24:05.455Z,25.54
2017-11-17T10:25:05.458Z,25.49
2017-11-17T10:26:05.463Z,25.19
2017-11-17T10:27:05.470Z,25.20
2017-11-17T10:28:05.485Z,25.29
2017-11-17T10:29:05.485Z,25.49
2017-11-17T10:30:05.491Z,25.60
2017-11-17T10:31:05.503Z,25.56
2017-11-17T10:32:05.509Z,25.45
2017-11-17T10:33:05.518Z,25.60
2017-11-17T10:34:05.524Z,25.53
2017-11-17T10:35:05.532Z,25.46
2017-11-17T10:36:05.539Z,25.01
2017-11-17T10:37:05.545Z,25.02
2017-11-17T10:38:05.552Z,25.02
2017-11-17T10:39:05.557Z,25.02
2017-11-17T10:40:05.564Z,25.30
2017-11-17T10:41:05.571Z,25.29
2017-11-17T10:42:05.578Z,25.53
2017-11-17T10:43:05.595Z,25.29
2017-11-17T10:44:05.598Z,25.59
2017-11-17T10:45:05.604Z,25.29
2017-11-17T10:46:05.611Z,25.02
2017-11-17T10:47:05.614Z,25.19
2017-11-17T10:48:05.623Z,24.74
2017-11-17T10:49:05.628Z,25.24
2017-11-17T10:50:05.639Z,25.04
2017-11-17T10:51:05.643Z,25.36
2017-11-17T10:52:05.651Z,25.51
2017-11-17T10:53:05.659Z,25.75
2017-11-17T10:54:05.668Z,25.53
2017-11-17T10:55:05.677Z,24.71
2017-11-17T10:56:05.684Z,24.66
2017-11-17T10:57:05.692Z,24.82
2017-11-17T10:58:05.699Z,24.79
2017-11-17T10:59:05.711Z,24.36
2017-11-17T11:00:05.714Z,23.45
2017-11-17T11:01:05.720Z,23.42
2017-11-17T11:02:05.725Z,22.69
2017-11-17T11:03:05.730Z,22.63
2017-11-17T11:04:05.736Z,22.81
2017-11-17T11:05:05.747Z,22.96
2017-11-17T11:06:05.748Z,23.31
2017-11-17T11:07:05.755Z,23.57
2017-11-17T11:08:05.763Z,23.31
2017-11-17T11:09:05.769Z,23.14
2017-11-17T11:10:05.776Z,22.86
2017-11-17T11:11:05.786Z,22.61
2017-11-17T11:12:05.792Z,22.29
2017-11-17T11:13:05.800Z,22.27
2017-11-17T11:14:05.804Z,21.53
2017-11-17T11:15:05.811Z,21.93
2017-11-17T11:16:05.818Z,21.75
2017-11-17T11:17:05.822Z,21.36
2017-11-17T11:18:05.826Z,20.78
2017-11-17T11:19:05.827Z,20.31
2017-11-17T11:20:05.832Z,19.97
2017-11-17T11:21:05.838Z,19.70
2017-11-17T11:22:05.844Z,19.17
2017-11-17T11:23:05.853Z,18.79
2017-11-17T11:24:05.854Z,18.53
2017-11-17T11:25:05.858Z,18.14
2017-11-17T11:26:05.859Z,17.76
2017-11-17T11:27:05.867Z,17.54
2017-11-17T11:28:05.879Z,17.10
2017-11-17T11:29:05.875Z,16.87
2017-11-17T11:30:05.878Z,17.05
2017-11-17T11:31:05.880Z,16.81
2017-11-17T11:32:05.881Z,16.59
2017-11-17T11:33:05.893Z,16.42
2017-11-17T11:34:05.888Z,16.37
2017-11-17T11:35:05.886Z,16.54
2017-11-17T11:36:05.889Z,16.25
2017-11-17T11:37:05.894Z,16.16
2017-11-17T11:38:05.891Z,16.18
2017-11-17T11:39:05.894Z,16.26
2017-11-17T11:40:05.894Z,16.27
2017-11-17T11:41:05.897Z,15.73
2017-11-17T11:42:05.898Z,15.49
2017-11-17T11:43:05.902Z,15.48
2017-11-17T11:44:05.905Z,15.53
2017-11-17T11:45:05.906Z,15.52
2017-11-17T11:46:05.905Z,15.51
2017-11-17T11:47:05.903Z,15.51
2017-11-17T11:48:05.904Z,15.40
2017-11-17T11:49:05.908Z,15.35
2017-11-17T11:50:05.904Z,15.49
2017-11-17T11:51:05.911Z,15.62
2017-11-17T11:52:05.907Z,15.62
2017-11-17T11:53:05.916Z,15.58
2017-11-17T11:54:05.965Z,15.66
2017-11-17T11:55:05.907Z,15.67
2017-11-17T11:56:05.909Z,15.59
2017-11-17T11:57:05.910Z,15.68
2017-11-17T11:58:05.910Z,15.60
2017-11-17T11:59:05.910Z,15.58
2017-11-17T12:00:05.903Z,15.41
2017-11-17T12:01:05.904Z,15.46
2017-11-17T12:02:05.902Z,15.41
2017-11-17T12:03:05.902Z,15.43
2017-11-17T12:04:05.903Z,15.52
2017-11-17T12:05:05.903Z,15.64
2017-11-17T12:06:05.901Z,15.53
2017-11-17T12:07:05.906Z,15.35
2017-11-17T12:08:05.906Z,15.49
2017-11-17T12:09:05.907Z,15.44
2017-11-17T12:10:05.904Z,14.85
2017-11-17T12:11:05.904Z,14.97
2017-11-17T12:12:05.905Z,14.95
2017-11-17T12:13:05.905Z,15.04
2017-11-17T12:14:05.906Z,15.04
2017-11-17T12:15:05.899Z,15.04
2017-11-17T12:16:05.899Z,15.11
2017-11-17T12:17:05.898Z,14.53
2017-11-17T12:18:05.899Z,14.13
2017-11-17T12:19:05.897Z,14.09
2017-11-17T12:20:05.897Z,14.09
2017-11-17T12:21:05.897Z,14.06
2017-11-17T12:22:05.896Z,13.75
2017-11-17T12:23:05.899Z,13.38
2017-11-17T12:24:05.899Z,13.10
2017-11-17T12:25:05.897Z,13.12
2017-11-17T12:26:05.898Z,13.09
2017-11-17T12:27:05.897Z,13.10
2017-11-17T12:28:05.894Z,12.92
2017-11-17T12:29:05.894Z,12.69
2017-11-17T12:30:05.891Z,12.61
2017-11-17T12:31:05.886Z,12.55
2017-11-17T12:32:05.885Z,12.62
2017-11-17T12:33:05.883Z,12.52
2017-11-17T12:34:05.884Z,12.59
2017-11-17T12:35:05.879Z,12.62
2017-11-17T12:36:05.882Z,12.58
2017-11-17T12:37:05.885Z,12.59
2017-11-17T12:38:05.873Z,12.73
2017-11-17T12:39:05.874Z,12.61
2017-11-17T12:40:05.882Z,12.48
2017-11-17T12:41:05.872Z,12.62
2017-11-17T12:42:05.867Z,12.74
2017-11-17T12:43:05.864Z,12.79
2017-11-17T12:44:05.863Z,12.62
2017-11-17T12:45:05.860Z,12.52
2017-11-17T12:46:05.857Z,12.51
2017-11-17T12:47:05.851Z,12.51
2017-11-17T12:48:05.847Z,12.58
2017-11-17T12:49:05.846Z,12.61
2017-11-17T12:50:05.841Z,12.70
2017-11-17T12:51:05.844Z,12.73
2017-11-17T12:52:05.845Z,12.69
2017-11-17T12:53:05.838Z,12.76
2017-11-17T12:54:05.835Z,12.70
2017-11-17T12:55:05.830Z,12.69
2017-11-17T12:56:05.825Z,12.76
2017-11-17T12:57:05.824Z,12.81
2017-11-17T12:58:05.817Z,12.84
2017-11-17T12:59:05.816Z,12.88
2017-11-17T13:00:05.826Z,12.96
2017-11-17T13:01:05.809Z,12.88
2017-11-17T13:02:05.805Z,12.88